Time;durP1;ratioP1;P1;durP2;ratioP2;P2;SDS_P1;SDS_P2;PMS_P1;PMS_P2;Temp;Humidity;BMP_temperature;BMP_pressure;BME280_temperature;BME280_humidity;BME280_pressure;Samples;Min_cycle;Max_cycle;Signal;HPM_P1;HPM_P2
2023/05/11 00:01:33;;;;;;;14.10;12.33;;;;;;;;;;5082602;28;20473;-70
2023/05/11 00:04:11;;;;;;;14.87;11.70;;;;;;;;;;5095549;28;20483;-69
2023/05/11 00:06:38;;;;;;;12.43;11.13;;;;;;;;;;5103214;28;20793;-69
2023/05/11 00:09:08;;;;;;;13.77;11.23;;;;;;;;;;5101974;28;20543;-70
2023/05/11 00:11:35;;;;;;;14.67;11.33;;;;;;;;;;5103236;28;20487;-70
2023/05/11 00:14:04;;;;;;;18.47;15.33;;;;;;;;;;5090069;28;20468;-70
2023/05/11 00:16:32;;;;;;;17.67;13.83;;;;;;;;;;5081088;28;20456;-70
2023/05/11 00:19:11;;;;;;;16.70;14.20;;;;;;;;;;5087638;28;20456;-70
2023/05/11 00:21:39;;;;;;;17.27;13.73;;;;;;;;;;5100777;28;20466;-68
2023/05/11 00:24:17;;;;;;;19.93;15.13;;;;;;;;;;5099724;28;20538;-69
2023/05/11 00:26:45;;;;;;;19.77;14.77;;;;;;;;;;5081787;28;20475;-70
2023/05/11 00:29:12;;;;;;;20.60;16.50;;;;;;;;;;5094036;28;20761;-69
2023/05/11 00:31:40;;;;;;;18.47;13.73;;;;;;;;;;5079212;28;20461;-69
2023/05/11 00:34:12;;;;;;;21.87;15.50;;;;;;;;;;5080016;28;20453;-70
2023/05/11 00:36:48;;;;;;;18.30;13.80;;;;;;;;;;5092350;28;20555;-68
2023/05/11 00:39:18;;;;;;;18.70;14.00;;;;;;;;;;5080041;28;20718;-68
2023/05/11 00:41:55;;;;;;;20.87;15.10;;;;;;;;;;5081305;28;20453;-70
2023/05/11 00:44:22;;;;;;;17.53;11.80;;;;;;;;;;5080504;28;20558;-70
2023/05/11 00:46:50;;;;;;;19.23;14.37;;;;;;;;;;5079991;28;20469;-70
2023/05/11 00:49:20;;;;;;;19.63;12.60;;;;;;;;;;5080657;28;20468;-69
2023/05/11 00:51:48;;;;;;;20.20;13.80;;;;;;;;;;5079907;28;20706;-69
2023/05/11 00:54:16;;;;;;;17.87;13.80;;;;;;;;;;5082077;28;20457;-69
2023/05/11 00:56:44;;;;;;;20.97;14.30;;;;;;;;;;5083525;28;20473;-69
2023/05/11 00:59:13;;;;;;;20.10;14.00;;;;;;;;;;5079603;28;20437;-68
2023/05/11 01:01:40;;;;;;;19.53;14.20;;;;;;;;;;5085469;28;20794;-67
2023/05/11 01:04:08;;;;;;;21.10;14.30;;;;;;;;;;5080034;28;20564;-68
2023/05/11 01:06:41;;;;;;;22.90;15.07;;;;;;;;;;5079408;28;20457;-69
2023/05/11 01:09:14;;;;;;;19.70;15.43;;;;;;;;;;5079306;28;20471;-69
2023/05/11 01:11:44;;;;;;;22.93;15.77;;;;;;;;;;5078904;28;20472;-68
2023/05/11 01:14:17;;;;;;;22.37;15.40;;;;;;;;;;5079159;28;20529;-70
2023/05/11 01:16:47;;;;;;;24.00;14.77;;;;;;;;;;5079426;28;20519;-68
2023/05/11 01:19:19;;;;;;;24.70;15.40;;;;;;;;;;5078982;28;20473;-68
2023/05/11 01:21:48;;;;;;;22.73;15.67;;;;;;;;;;5080902;28;20485;-68
2023/05/11 01:24:32;;;;;;;22.00;16.10;;;;;;;;;;5100206;28;20542;-69
2023/05/11 01:27:20;;;;;;;24.30;16.37;;;;;;;;;;5097221;28;20482;-69
2023/05/11 01:30:08;;;;;;;22.23;15.47;;;;;;;;;;5097562;28;20513;-69
2023/05/11 01:32:41;;;;;;;21.03;15.80;;;;;;;;;;5092076;28;20887;-69
2023/05/11 01:35:12;;;;;;;22.90;15.20;;;;;;;;;;5096904;28;20499;-69
2023/05/11 01:37:42;;;;;;;21.47;15.03;;;;;;;;;;5091677;28;20441;-67
2023/05/11 01:40:13;;;;;;;22.30;15.23;;;;;;;;;;5080061;28;20452;-68
2023/05/11 01:42:42;;;;;;;23.10;15.37;;;;;;;;;;5096461;28;20456;-68
2023/05/11 01:45:12;;;;;;;19.80;14.73;;;;;;;;;;5099828;28;20488;-69
2023/05/11 01:47:42;;;;;;;21.70;15.90;;;;;;;;;;5099088;28;20451;-69
2023/05/11 01:50:11;;;;;;;19.80;14.60;;;;;;;;;;5098952;28;20801;-69
2023/05/11 01:52:39;;;;;;;20.83;15.43;;;;;;;;;;5098337;28;20448;-69
2023/05/11 01:55:08;;;;;;;20.50;15.03;;;;;;;;;;5093832;28;20457;-69
2023/05/11 01:57:37;;;;;;;20.07;15.17;;;;;;;;;;5077172;28;20460;-69
2023/05/11 02:00:14;;;;;;;22.57;14.37;;;;;;;;;;5076903;28;20479;-68
2023/05/11 02:02:43;;;;;;;19.80;13.70;;;;;;;;;;5076683;28;20460;-69
2023/05/11 02:05:12;;;;;;;21.60;13.70;;;;;;;;;;5085096;28;20476;-69
2023/05/11 02:07:42;;;;;;;19.33;12.93;;;;;;;;;;5082926;28;20441;-69
2023/05/11 02:10:11;;;;;;;19.93;14.17;;;;;;;;;;5073138;28;20892;-69
2023/05/11 02:12:40;;;;;;;18.90;12.23;;;;;;;;;;5078848;28;20468;-68
2023/05/11 02:15:09;;;;;;;21.50;12.83;;;;;;;;;;5078786;28;20597;-69
2023/05/11 02:17:39;;;;;;;19.67;13.03;;;;;;;;;;5078947;28;20958;-70
2023/05/11 02:20:13;;;;;;;20.93;13.00;;;;;;;;;;5077595;28;20457;-70
2023/05/11 02:22:41;;;;;;;17.50;11.73;;;;;;;;;;5082204;28;20479;-68
2023/05/11 02:25:10;;;;;;;17.37;12.20;;;;;;;;;;5098240;28;20499;-70
2023/05/11 02:27:39;;;;;;;17.00;12.13;;;;;;;;;;5097179;28;20467;-68
2023/05/11 02:30:12;;;;;;;19.30;13.07;;;;;;;;;;5098427;28;20586;-70
2023/05/11 02:32:42;;;;;;;17.40;11.57;;;;;;;;;;5098654;28;20522;-70
2023/05/11 02:35:16;;;;;;;16.40;11.87;;;;;;;;;;5085110;28;20453;-71
2023/05/11 02:37:45;;;;;;;16.10;11.63;;;;;;;;;;5097413;28;21128;-69
2023/05/11 02:40:17;;;;;;;18.27;12.10;;;;;;;;;;5088403;28;20449;-70
2023/05/11 02:42:47;;;;;;;19.57;13.17;;;;;;;;;;5077734;28;20452;-69
2023/05/11 02:45:16;;;;;;;18.23;11.90;;;;;;;;;;5077421;28;20540;-70
2023/05/11 02:47:46;;;;;;;15.60;11.07;;;;;;;;;;5080258;28;20452;-68
2023/05/11 02:50:16;;;;;;;16.93;12.27;;;;;;;;;;5081132;28;20473;-68
2023/05/11 02:52:47;;;;;;;15.63;11.70;;;;;;;;;;5080187;28;20879;-68
2023/05/11 02:55:17;;;;;;;17.53;12.27;;;;;;;;;;5080322;28;20445;-69
2023/05/11 02:57:46;;;;;;;15.27;11.23;;;;;;;;;;5080526;28;20466;-70
2023/05/11 03:00:14;;;;;;;16.63;11.53;;;;;;;;;;5083405;28;20471;-70
2023/05/11 03:02:41;;;;;;;16.70;12.10;;;;;;;;;;5079205;28;20453;-69
2023/05/11 03:05:10;;;;;;;18.67;11.50;;;;;;;;;;5079974;28;20527;-70
2023/05/11 03:07:39;;;;;;;15.90;12.23;;;;;;;;;;5080269;28;20453;-70
2023/05/11 03:10:11;;;;;;;20.23;12.70;;;;;;;;;;5085304;28;20452;-70
2023/05/11 03:12:39;;;;;;;20.30;12.17;;;;;;;;;;5091680;28;20465;-70
2023/05/11 03:15:10;;;;;;;18.87;12.40;;;;;;;;;;5080550;28;20712;-69
2023/05/11 03:17:39;;;;;;;15.90;10.60;;;;;;;;;;5081120;28;20561;-69
2023/05/11 03:20:14;;;;;;;16.43;11.97;;;;;;;;;;5081621;28;20559;-70
2023/05/11 03:22:45;;;;;;;16.07;10.67;;;;;;;;;;5082194;28;20465;-69
2023/05/11 03:25:13;;;;;;;14.77;10.90;;;;;;;;;;5081053;28;20483;-69
2023/05/11 03:27:42;;;;;;;14.33;10.33;;;;;;;;;;5080679;28;20623;-69
2023/05/11 03:30:10;;;;;;;15.67;10.47;;;;;;;;;;5101201;28;20452;-69
2023/05/11 03:32:38;;;;;;;15.60;10.53;;;;;;;;;;5098367;28;20464;-69
2023/05/11 03:35:06;;;;;;;13.30;10.27;;;;;;;;;;5099692;28;20440;-69
2023/05/11 03:37:34;;;;;;;16.00;10.80;;;;;;;;;;5097122;28;20448;-69
2023/05/11 03:40:14;;;;;;;14.03;10.30;;;;;;;;;;5082205;28;20453;-70
2023/05/11 03:42:43;;;;;;;17.20;11.13;;;;;;;;;;5096396;28;20455;-69
2023/05/11 03:45:14;;;;;;;15.50;11.00;;;;;;;;;;5092622;28;20960;-71
2023/05/11 03:47:43;;;;;;;14.53;10.27;;;;;;;;;;5078282;28;20469;-69
2023/05/11 03:50:13;;;;;;;17.20;10.87;;;;;;;;;;5077938;28;20460;-70
2023/05/11 03:52:41;;;;;;;17.53;10.63;;;;;;;;;;5078269;28;20457;-70
2023/05/11 03:55:11;;;;;;;17.90;11.30;;;;;;;;;;5079306;28;20461;-70
2023/05/11 03:57:39;;;;;;;14.43;11.00;;;;;;;;;;5076461;28;20481;-70
2023/05/11 04:00:13;;;;;;;15.67;10.90;;;;;;;;;;5078526;28;20542;-70
2023/05/11 04:02:41;;;;;;;13.60;9.67;;;;;;;;;;5077570;28;20461;-70
2023/05/11 04:05:09;;;;;;;14.37;9.27;;;;;;;;;;5077711;28;20484;-71
2023/05/11 04:07:37;;;;;;;14.90;10.20;;;;;;;;;;5093015;28;20449;-70
2023/05/11 04:10:15;;;;;;;14.80;10.37;;;;;;;;;;5079940;28;21742;-69
2023/05/11 04:12:44;;;;;;;13.77;9.43;;;;;;;;;;5078761;28;20477;-69
2023/05/11 04:15:12;;;;;;;14.57;11.23;;;;;;;;;;5093908;28;20452;-69
2023/05/11 04:17:40;;;;;;;17.77;11.20;;;;;;;;;;5111851;28;20455;-69
2023/05/11 04:20:09;;;;;;;16.30;10.90;;;;;;;;;;5098711;28;20452;-70
2023/05/11 04:22:37;;;;;;;14.73;10.33;;;;;;;;;;5075529;28;20453;-69
2023/05/11 04:25:06;;;;;;;13.50;9.27;;;;;;;;;;5107231;28;20474;-69
2023/05/11 04:27:45;;;;;;;17.80;11.97;;;;;;;;;;5096750;28;20981;-70
2023/05/11 04:30:14;;;;;;;17.30;11.53;;;;;;;;;;5086730;28;20531;-69
2023/05/11 04:32:42;;;;;;;15.40;10.40;;;;;;;;;;5075668;28;20464;-70
2023/05/11 04:35:10;;;;;;;18.00;10.73;;;;;;;;;;5078931;28;20869;-69
2023/05/11 04:37:41;;;;;;;14.50;10.43;;;;;;;;;;5077864;28;20475;-70
2023/05/11 04:40:10;;;;;;;17.30;10.63;;;;;;;;;;5080688;28;20448;-69
2023/05/11 04:42:42;;;;;;;15.10;10.97;;;;;;;;;;5078053;28;20485;-70
2023/05/11 04:45:10;;;;;;;17.97;10.93;;;;;;;;;;5085420;28;20481;-69
2023/05/11 04:47:38;;;;;;;15.37;10.50;;;;;;;;;;5078621;28;20453;-69
2023/05/11 04:50:12;;;;;;;16.10;10.67;;;;;;;;;;5086522;28;20467;-70
2023/05/11 04:52:40;;;;;;;16.90;11.27;;;;;;;;;;5099124;28;20458;-69
2023/05/11 04:55:08;;;;;;;16.07;10.03;;;;;;;;;;5081120;28;20457;-69
2023/05/11 04:57:38;;;;;;;14.20;9.27;;;;;;;;;;5078720;28;20463;-69
2023/05/11 05:00:11;;;;;;;14.20;9.10;;;;;;;;;;5085478;28;20452;-71
2023/05/11 05:02:40;;;;;;;16.67;10.00;;;;;;;;;;5085539;28;20484;-70
2023/05/11 05:05:09;;;;;;;20.00;10.43;;;;;;;;;;5088205;28;20495;-70
2023/05/11 05:07:37;;;;;;;14.17;10.47;;;;;;;;;;5075342;28;21104;-70
2023/05/11 05:10:11;;;;;;;10.97;8.80;;;;;;;;;;5074892;28;20449;-70
2023/05/11 05:12:40;;;;;;;15.03;10.70;;;;;;;;;;5073172;28;20824;-70
2023/05/11 05:15:10;;;;;;;15.43;9.77;;;;;;;;;;5091253;28;20960;-70
2023/05/11 05:17:42;;;;;;;15.27;10.67;;;;;;;;;;5079437;28;20461;-70
2023/05/11 05:20:15;;;;;;;22.83;14.20;;;;;;;;;;5073799;28;20465;-70
2023/05/11 05:22:46;;;;;;;12.87;10.30;;;;;;;;;;5074028;28;20627;-70
2023/05/11 05:25:17;;;;;;;17.70;11.80;;;;;;;;;;5080513;28;20484;-70
2023/05/11 05:27:44;;;;;;;15.17;10.23;;;;;;;;;;5076417;28;20461;-70
2023/05/11 05:30:13;;;;;;;14.90;10.73;;;;;;;;;;5075677;28;20631;-70
2023/05/11 05:32:43;;;;;;;13.57;9.70;;;;;;;;;;5072865;28;20739;-71
2023/05/11 05:35:11;;;;;;;14.30;10.53;;;;;;;;;;5072889;28;20542;-69
2023/05/11 05:37:39;;;;;;;14.87;10.50;;;;;;;;;;5071960;28;20513;-69
2023/05/11 05:40:17;;;;;;;15.73;10.97;;;;;;;;;;5072835;28;20576;-70
2023/05/11 05:42:45;;;;;;;15.17;9.90;;;;;;;;;;5071910;28;20510;-70
2023/05/11 05:45:13;;;;;;;16.03;9.13;;;;;;;;;;5070445;28;20492;-69
2023/05/11 05:47:43;;;;;;;15.40;10.33;;;;;;;;;;5075881;28;20465;-71
2023/05/11 05:50:11;;;;;;;14.17;10.87;;;;;;;;;;5081703;28;20463;-69
2023/05/11 05:52:39;;;;;;;17.30;14.13;;;;;;;;;;5090437;28;20872;-69
2023/05/11 05:55:07;;;;;;;13.10;10.50;;;;;;;;;;5090743;28;20455;-69
2023/05/11 05:57:35;;;;;;;11.83;8.67;;;;;;;;;;5088432;28;20452;-69
2023/05/11 06:00:09;;;;;;;13.83;8.97;;;;;;;;;;5090142;28;20464;-69
2023/05/11 06:02:40;;;;;;;13.53;8.27;;;;;;;;;;5077398;28;21178;-70
2023/05/11 06:05:10;;;;;;;11.50;9.47;;;;;;;;;;5068650;28;21124;-69
2023/05/11 06:07:37;;;;;;;11.67;8.67;;;;;;;;;;5070150;28;20465;-71
2023/05/11 06:10:16;;;;;;;13.20;9.70;;;;;;;;;;5068638;28;20556;-71
2023/05/11 06:12:44;;;;;;;11.23;8.50;;;;;;;;;;5067399;28;20536;-69
2023/05/11 06:15:21;;;;;;;11.03;7.47;;;;;;;;;;5071945;28;20518;-70
2023/05/11 06:17:53;;;;;;;14.03;9.77;;;;;;;;;;5088982;28;20766;-69
2023/05/11 06:20:28;;;;;;;12.10;9.30;;;;;;;;;;5076702;28;20457;-69
2023/05/11 06:22:56;;;;;;;12.17;8.87;;;;;;;;;;5084605;28;20466;-72
2023/05/11 06:25:26;;;;;;;12.10;8.97;;;;;;;;;;5092126;28;20490;-70
2023/05/11 06:27:58;;;;;;;12.80;8.60;;;;;;;;;;5093205;28;20456;-69
2023/05/11 06:30:30;;;;;;;14.47;9.57;;;;;;;;;;5095855;28;20455;-70
2023/05/11 06:32:58;;;;;;;11.00;8.90;;;;;;;;;;5093225;28;20570;-68
2023/05/11 06:35:29;;;;;;;13.10;9.93;;;;;;;;;;5093275;28;20851;-70
2023/05/11 06:38:11;;;;;;;13.07;10.23;;;;;;;;;;5094008;28;21059;-70
2023/05/11 06:40:40;;;;;;;11.80;8.30;;;;;;;;;;5092725;28;20444;-70
2023/05/11 06:43:12;;;;;;;12.90;10.03;;;;;;;;;;5081815;28;20450;-70
2023/05/11 06:45:52;;;;;;;13.57;9.27;;;;;;;;;;5082565;28;20477;-70
2023/05/11 06:48:30;;;;;;;11.03;8.00;;;;;;;;;;5076033;28;20884;-70
2023/05/11 06:51:08;;;;;;;12.27;9.30;;;;;;;;;;5076182;28;20488;-70
2023/05/11 06:53:39;;;;;;;13.13;8.60;;;;;;;;;;5074530;28;20464;-70
2023/05/11 06:56:21;;;;;;;9.07;7.00;;;;;;;;;;5074940;28;21106;-69
2023/05/11 06:58:59;;;;;;;12.23;8.23;;;;;;;;;;5078215;28;20547;-70
2023/05/11 07:01:33;;;;;;;11.83;8.87;;;;;;;;;;5076227;28;20452;-70
2023/05/11 07:04:07;;;;;;;12.33;8.60;;;;;;;;;;5076410;28;20727;-71
2023/05/11 07:06:48;;;;;;;10.83;8.20;;;;;;;;;;5075730;28;20968;-70
2023/05/11 07:09:17;;;;;;;12.20;7.63;;;;;;;;;;5075777;28;20685;-70
2023/05/11 07:11:56;;;;;;;12.80;9.07;;;;;;;;;;5094313;28;20455;-69
2023/05/11 07:14:24;;;;;;;12.80;9.30;;;;;;;;;;5099302;28;20475;-70
2023/05/11 07:16:58;;;;;;;13.57;8.70;;;;;;;;;;5093661;28;20465;-70
2023/05/11 07:19:26;;;;;;;12.40;9.00;;;;;;;;;;5085794;28;20457;-70
2023/05/11 07:22:00;;;;;;;9.87;7.43;;;;;;;;;;5079377;28;20460;-70
2023/05/11 07:24:28;;;;;;;11.40;8.90;;;;;;;;;;5096099;28;20554;-69
2023/05/11 07:26:59;;;;;;;10.60;7.90;;;;;;;;;;5096481;28;20492;-69
2023/05/11 07:29:27;;;;;;;10.03;7.70;;;;;;;;;;5090455;28;20539;-69
2023/05/11 07:31:55;;;;;;;14.47;8.40;;;;;;;;;;5073836;28;20524;-69
2023/05/11 07:34:23;;;;;;;12.33;7.93;;;;;;;;;;5073628;28;20445;-70
2023/05/11 07:37:12;;;;;;;11.63;7.70;;;;;;;;;;5057993;28;20454;-70
2023/05/11 07:39:51;;;;;;;11.03;7.07;;;;;;;;;;5051324;28;20532;-71
2023/05/11 07:42:19;;;;;;;12.67;7.57;;;;;;;;;;5035656;28;20497;-70
2023/05/11 07:44:46;;;;;;;12.33;6.63;;;;;;;;;;5052061;28;20501;-68
2023/05/11 07:47:14;;;;;;;12.40;7.77;;;;;;;;;;5053963;28;20543;-69
2023/05/11 07:49:42;;;;;;;9.67;7.27;;;;;;;;;;5052962;28;20484;-70
2023/05/11 07:52:11;;;;;;;10.53;6.00;;;;;;;;;;5068101;28;20465;-69
2023/05/11 07:54:39;;;;;;;9.07;5.80;;;;;;;;;;5072827;28;20481;-70
2023/05/11 07:57:07;;;;;;;9.23;5.83;;;;;;;;;;5073882;28;20548;-70
2023/05/11 07:59:35;;;;;;;9.30;5.70;;;;;;;;;;5073989;28;20453;-69
2023/05/11 08:02:03;;;;;;;10.73;5.73;;;;;;;;;;5074304;28;20456;-70
2023/05/11 08:04:31;;;;;;;12.10;6.63;;;;;;;;;;5073431;28;20551;-70
2023/05/11 08:06:59;;;;;;;8.73;5.63;;;;;;;;;;5075080;28;20491;-69
2023/05/11 08:09:31;;;;;;;9.67;6.63;;;;;;;;;;5058898;28;20458;-71
2023/05/11 08:12:00;;;;;;;13.30;6.63;;;;;;;;;;5072651;28;20457;-70
2023/05/11 08:14:28;;;;;;;12.50;7.10;;;;;;;;;;5075018;28;20429;-70
2023/05/11 08:16:56;;;;;;;7.93;5.50;;;;;;;;;;5075324;28;20499;-71
2023/05/11 08:19:32;;;;;;;9.23;5.40;;;;;;;;;;5077073;28;20452;-72
2023/05/11 08:22:15;;;;;;;8.70;6.03;;;;;;;;;;5072438;28;20461;-71
2023/05/11 08:24:48;;;;;;;7.30;5.03;;;;;;;;;;5079757;28;20457;-70
2023/05/11 08:27:17;;;;;;;8.97;4.67;;;;;;;;;;5076614;28;20511;-70
2023/05/11 08:29:47;;;;;;;10.70;5.67;;;;;;;;;;5084755;28;20478;-71
2023/05/11 08:32:19;;;;;;;9.73;5.17;;;;;;;;;;5098798;28;21008;-71
2023/05/11 08:34:48;;;;;;;8.67;5.03;;;;;;;;;;5097104;28;20460;-70
2023/05/11 08:37:16;;;;;;;8.73;5.57;;;;;;;;;;5074930;28;20449;-70
2023/05/11 08:39:53;;;;;;;10.20;5.40;;;;;;;;;;5077882;28;20461;-71
2023/05/11 08:42:23;;;;;;;9.63;5.40;;;;;;;;;;5076057;28;20485;-71
2023/05/11 08:44:58;;;;;;;12.00;6.00;;;;;;;;;;5073987;28;20830;-72
2023/05/11 08:47:27;;;;;;;8.30;5.73;;;;;;;;;;5070784;28;20485;-71
2023/05/11 08:49:58;;;;;;;9.30;6.00;;;;;;;;;;5072498;28;20476;-71
2023/05/11 08:52:27;;;;;;;10.97;5.70;;;;;;;;;;5075406;28;20835;-71
2023/05/11 08:54:58;;;;;;;12.80;8.37;;;;;;;;;;5085283;28;20452;-70
2023/05/11 08:57:43;;;;;;;14.60;6.87;;;;;;;;;;5074665;28;20552;-70
2023/05/11 09:00:13;;;;;;;10.90;6.33;;;;;;;;;;5075705;28;20471;-70
2023/05/11 09:02:44;;;;;;;12.07;7.10;;;;;;;;;;5074451;28;20523;-70
2023/05/11 09:05:12;;;;;;;15.00;7.53;;;;;;;;;;5075418;28;20441;-69
2023/05/11 09:10:37;;;;;;;13.50;8.07;;;;;;;;;;5073934;28;20437;-70
2023/05/11 09:13:07;;;;;;;16.00;11.13;;;;;;;;;;5086040;28;20452;-69
2023/05/11 09:15:37;;;;;;;13.27;8.07;;;;;;;;;;5080113;28;20460;-70
2023/05/11 09:18:12;;;;;;;14.53;8.43;;;;;;;;;;5091769;28;20596;-71
2023/05/11 09:20:46;;;;;;;15.33;9.30;;;;;;;;;;5083229;28;20476;-71
2023/05/11 09:23:26;;;;;;;12.10;8.00;;;;;;;;;;5075746;28;20445;-70
2023/05/11 09:25:57;;;;;;;14.40;7.57;;;;;;;;;;5077405;28;20939;-70
2023/05/11 09:28:27;;;;;;;11.83;7.30;;;;;;;;;;5077127;28;20471;-70
2023/05/11 09:31:05;;;;;;;14.50;8.80;;;;;;;;;;5076016;28;20500;-71
2023/05/11 09:33:54;;;;;;;19.43;9.93;;;;;;;;;;5075378;28;20457;-71
2023/05/11 09:36:43;;;;;;;17.47;9.03;;;;;;;;;;5073882;28;20968;-70
2023/05/11 09:39:27;;;;;;;15.97;8.90;;;;;;;;;;5074086;28;20547;-71
2023/05/11 09:42:12;;;;;;;19.70;9.40;;;;;;;;;;5075572;28;20910;-70
2023/05/11 09:44:47;;;;;;;15.83;8.33;;;;;;;;;;5076234;28;20492;-70
2023/05/11 09:47:16;;;;;;;15.07;9.13;;;;;;;;;;5076125;28;20491;-70
2023/05/11 09:49:45;;;;;;;15.33;9.17;;;;;;;;;;5077515;28;20516;-69
2023/05/11 09:52:22;;;;;;;16.30;8.47;;;;;;;;;;5080776;28;20530;-70
2023/05/11 09:57:45;;;;;;;14.53;7.97;;;;;;;;;;5089974;28;20440;-69
2023/05/11 10:00:39;;;;;;;16.57;9.20;;;;;;;;;;5088510;28;20464;-71
2023/05/11 10:03:25;;;;;;;17.63;10.00;;;;;;;;;;5082496;28;20726;-71
2023/05/11 10:06:01;;;;;;;15.57;9.43;;;;;;;;;;5078292;28;20555;-70
2023/05/11 10:08:36;;;;;;;18.10;9.53;;;;;;;;;;5078617;28;20551;-70
2023/05/11 10:11:11;;;;;;;17.60;9.77;;;;;;;;;;5076397;28;20539;-69
2023/05/11 10:13:44;;;;;;;17.90;10.90;;;;;;;;;;5091332;28;21000;-71
2023/05/11 10:16:15;;;;;;;17.60;10.83;;;;;;;;;;5089937;28;20457;-70
2023/05/11 10:18:44;;;;;;;17.13;11.00;;;;;;;;;;5077402;28;20461;-69
2023/05/11 10:24:05;;;;;;;16.63;10.53;;;;;;;;;;5090052;28;20610;-71
2023/05/11 10:26:34;;;;;;;19.73;11.50;;;;;;;;;;5091757;28;20647;-71
2023/05/11 10:29:05;;;;;;;16.83;11.73;;;;;;;;;;5079297;28;20567;-70
2023/05/11 10:31:33;;;;;;;17.90;10.33;;;;;;;;;;5070644;28;20461;-71
2023/05/11 10:34:05;;;;;;;21.07;13.63;;;;;;;;;;5088700;28;20497;-71
2023/05/11 10:36:38;;;;;;;32.40;22.43;;;;;;;;;;5095973;28;20447;-70
2023/05/11 10:39:06;;;;;;;21.47;12.87;;;;;;;;;;5099030;28;20514;-70
2023/05/11 10:41:50;;;;;;;18.10;11.30;;;;;;;;;;5098388;28;20467;-69
2023/05/11 10:44:39;;;;;;;19.20;11.40;;;;;;;;;;5098866;28;20448;-69
2023/05/11 10:47:25;;;;;;;19.27;11.93;;;;;;;;;;5094173;28;20755;-70
2023/05/11 10:50:13;;;;;;;19.40;12.40;;;;;;;;;;5076805;28;20476;-70
2023/05/11 10:53:06;;;;;;;17.50;11.50;;;;;;;;;;5083805;28;20709;-71
2023/05/11 10:59:04;;;;;;;17.10;11.20;;;;;;;;;;5094703;28;20453;-70
2023/05/11 11:01:47;;;;;;;19.67;13.60;;;;;;;;;;5097951;28;20436;-70
2023/05/11 11:04:16;;;;;;;21.63;14.33;;;;;;;;;;5097996;28;20436;-70
2023/05/11 11:06:53;;;;;;;19.70;13.03;;;;;;;;;;5097927;28;20494;-71
2023/05/11 11:09:36;;;;;;;17.40;12.40;;;;;;;;;;5099001;28;20523;-71
2023/05/11 11:12:14;;;;;;;15.27;11.20;;;;;;;;;;5097475;28;21007;-71
2023/05/11 11:15:05;;;;;;;21.43;13.13;;;;;;;;;;5095118;28;20547;-70
2023/05/11 11:17:38;;;;;;;18.23;12.87;;;;;;;;;;5086132;28;21076;-70
2023/05/11 11:23:45;;;;;;;20.20;12.93;;;;;;;;;;5093511;28;20456;-69
2023/05/11 11:26:15;;;;;;;17.70;11.93;;;;;;;;;;5086903;28;20551;-69
2023/05/11 11:29:25;;;;;;;17.07;12.50;;;;;;;;;;5094367;28;21092;-70
2023/05/11 11:32:21;;;;;;;19.23;12.77;;;;;;;;;;5078690;28;20532;-70
2023/05/11 11:34:51;;;;;;;16.50;12.60;;;;;;;;;;5052210;28;20980;-69
2023/05/11 11:37:22;;;;;;;16.07;12.90;;;;;;;;;;5072638;28;20564;-69
2023/05/11 11:40:12;;;;;;;18.40;13.33;;;;;;;;;;5073136;28;20540;-69
2023/05/11 11:42:44;;;;;;;18.83;12.40;;;;;;;;;;5074167;28;20821;-70
2023/05/11 11:45:31;;;;;;;18.03;12.87;;;;;;;;;;5073504;28;20528;-70
2023/05/11 11:48:27;;;;;;;19.40;13.83;;;;;;;;;;5072028;28;20485;-70
2023/05/11 11:51:11;;;;;;;17.43;12.60;;;;;;;;;;5067714;28;20449;-70
2023/05/11 11:54:07;;;;;;;18.73;12.70;;;;;;;;;;5068930;28;20465;-70
2023/05/11 11:56:55;;;;;;;17.07;11.90;;;;;;;;;;5057144;28;20470;-72
2023/05/11 11:59:28;;;;;;;17.40;11.63;;;;;;;;;;5055034;28;20461;-73
2023/05/11 12:02:01;;;;;;;18.13;13.03;;;;;;;;;;5063509;28;20460;-72
2023/05/11 12:05:07;;;;;;;16.83;11.73;;;;;;;;;;5076119;28;20461;-72
2023/05/11 12:07:48;;;;;;;16.07;11.33;;;;;;;;;;5055187;28;20485;-70
2023/05/11 12:10:56;;;;;;;15.23;10.80;;;;;;;;;;5077561;28;20455;-71
2023/05/11 12:19:34;;;;;;;17.10;11.87;;;;;;;;;;5077803;28;20470;-71
2023/05/11 12:22:09;;;;;;;16.80;13.13;;;;;;;;;;5113657;28;20805;-72
2023/05/11 12:31:21;;;;;;;16.13;11.80;;;;;;;;;;5074553;28;20454;-71
2023/05/11 12:33:55;;;;;;;15.93;11.67;;;;;;;;;;5060549;28;20485;-70
2023/05/11 12:36:25;;;;;;;12.40;10.63;;;;;;;;;;5078008;28;20464;-70
2023/05/11 12:38:55;;;;;;;16.20;11.20;;;;;;;;;;5086782;28;20449;-71
2023/05/11 12:41:24;;;;;;;16.50;12.40;;;;;;;;;;5074363;28;20714;-70
2023/05/11 12:43:53;;;;;;;15.73;11.87;;;;;;;;;;5088580;28;20529;-70
2023/05/11 12:46:25;;;;;;;17.13;11.10;;;;;;;;;;5074263;28;20528;-70
2023/05/11 12:48:56;;;;;;;16.00;12.20;;;;;;;;;;5087186;28;20460;-69
2023/05/11 12:51:47;;;;;;;14.10;12.10;;;;;;;;;;5091605;28;20526;-70
2023/05/11 12:54:30;;;;;;;16.33;12.93;;;;;;;;;;5074798;28;20469;-70
2023/05/11 12:57:13;;;;;;;14.10;11.50;;;;;;;;;;5073803;28;20464;-72
2023/05/11 12:59:52;;;;;;;15.47;11.30;;;;;;;;;;5074167;28;20457;-72
2023/05/11 13:02:22;;;;;;;14.77;12.00;;;;;;;;;;5073996;28;20469;-71
2023/05/11 13:04:58;;;;;;;17.60;12.57;;;;;;;;;;5091588;28;20744;-70
2023/05/11 13:07:32;;;;;;;15.23;11.90;;;;;;;;;;5094207;28;20523;-70
2023/05/11 13:10:39;;;;;;;16.00;12.50;;;;;;;;;;5091922;28;20463;-70
2023/05/11 13:13:38;;;;;;;19.43;11.53;;;;;;;;;;5097526;28;20471;-71
2023/05/11 13:16:14;;;;;;;16.17;12.07;;;;;;;;;;5078732;28;20510;-71
2023/05/11 13:18:58;;;;;;;15.37;12.43;;;;;;;;;;5111348;28;20461;-71
2023/05/11 13:21:54;;;;;;;16.97;13.97;;;;;;;;;;5112670;28;20935;-71
2023/05/11 13:24:32;;;;;;;14.73;12.33;;;;;;;;;;5104371;28;20454;-71
2023/05/11 13:27:12;;;;;;;16.90;12.73;;;;;;;;;;5108083;28;20916;-72
2023/05/11 13:29:46;;;;;;;16.67;12.77;;;;;;;;;;5109883;28;20451;-71
2023/05/11 13:32:13;;;;;;;18.57;14.60;;;;;;;;;;5091415;28;20472;-73
2023/05/11 13:34:44;;;;;;;16.60;13.20;;;;;;;;;;5090913;28;20551;-71
2023/05/11 13:37:12;;;;;;;18.67;13.07;;;;;;;;;;5089903;28;20460;-72
2023/05/11 13:39:49;;;;;;;15.20;13.13;;;;;;;;;;5111433;28;20447;-72
2023/05/11 13:42:32;;;;;;;18.37;13.50;;;;;;;;;;5109482;28;20484;-71
2023/05/11 13:45:13;;;;;;;16.57;12.47;;;;;;;;;;5102458;28;20487;-71
2023/05/11 13:48:46;;;;;;;17.07;14.10;;;;;;;;;;5095446;28;20510;-71
2023/05/11 13:51:15;;;;;;;14.73;11.57;;;;;;;;;;5105744;28;20454;-71
2023/05/11 13:53:43;;;;;;;14.23;11.87;;;;;;;;;;5106940;28;20557;-71
2023/05/11 13:56:12;;;;;;;14.27;12.27;;;;;;;;;;5127580;27;20469;-70
2023/05/11 13:58:43;;;;;;;13.83;11.50;;;;;;;;;;5129398;27;20450;-70
2023/05/11 14:01:11;;;;;;;15.27;11.27;;;;;;;;;;5127619;27;20449;-71
2023/05/11 14:03:40;;;;;;;13.63;12.17;;;;;;;;;;5130667;28;20519;-70
2023/05/11 14:06:08;;;;;;;13.90;11.40;;;;;;;;;;5094060;28;20463;-70
2023/05/11 14:08:38;;;;;;;14.50;11.53;;;;;;;;;;5093763;28;20515;-70
2023/05/11 14:11:08;;;;;;;14.37;10.13;;;;;;;;;;5081997;28;20451;-71
2023/05/11 14:13:46;;;;;;;12.17;10.90;;;;;;;;;;5091689;28;20460;-70
2023/05/11 14:22:32;;;;;;;12.13;10.17;;;;;;;;;;5106608;28;20578;-71
2023/05/11 14:25:13;;;;;;;11.97;10.40;;;;;;;;;;5098858;28;20463;-69
2023/05/11 14:27:50;;;;;;;11.60;10.17;;;;;;;;;;5086140;28;20545;-71
2023/05/11 14:30:32;;;;;;;12.20;10.90;;;;;;;;;;5098254;28;20490;-71
2023/05/11 14:33:02;;;;;;;13.50;10.50;;;;;;;;;;5092798;28;20467;-70
2023/05/11 14:35:42;;;;;;;13.10;10.50;;;;;;;;;;5108789;28;20462;-70
2023/05/11 14:38:12;;;;;;;12.83;10.97;;;;;;;;;;5115092;28;20479;-70
2023/05/11 14:40:41;;;;;;;15.63;10.80;;;;;;;;;;5112842;28;20455;-72
2023/05/11 14:43:19;;;;;;;12.77;10.60;;;;;;;;;;5116035;28;20458;-71
2023/05/11 14:46:01;;;;;;;12.03;10.70;;;;;;;;;;5108567;28;20789;-71
2023/05/11 14:48:29;;;;;;;13.37;10.97;;;;;;;;;;5092623;28;20511;-69
2023/05/11 14:51:03;;;;;;;12.60;10.83;;;;;;;;;;5093597;28;20504;-70
2023/05/11 14:53:33;;;;;;;13.63;11.70;;;;;;;;;;5094856;28;20467;-70
2023/05/11 14:56:04;;;;;;;12.67;10.97;;;;;;;;;;5093633;28;20440;-71
2023/05/11 14:58:35;;;;;;;16.40;12.07;;;;;;;;;;5095945;28;20517;-71
2023/05/11 15:01:13;;;;;;;13.90;11.60;;;;;;;;;;5095352;28;20456;-71
2023/05/11 15:03:43;;;;;;;14.40;12.33;;;;;;;;;;5094242;28;20452;-70
2023/05/11 15:06:19;;;;;;;17.00;12.10;;;;;;;;;;5094888;28;20452;-70
2023/05/11 15:09:03;;;;;;;14.60;12.00;;;;;;;;;;5101422;28;20486;-69
2023/05/11 15:11:36;;;;;;;13.97;12.40;;;;;;;;;;5095131;28;20468;-71
2023/05/11 15:14:31;;;;;;;16.57;14.00;;;;;;;;;;5095495;28;20467;-72
2023/05/11 15:17:25;;;;;;;14.57;13.07;;;;;;;;;;5101236;28;20459;-70
2023/05/11 15:20:14;;;;;;;16.10;14.40;;;;;;;;;;5085728;28;20455;-73
2023/05/11 15:22:44;;;;;;;16.20;13.60;;;;;;;;;;5100785;28;20457;-72
2023/05/11 15:25:15;;;;;;;17.70;15.50;;;;;;;;;;5099323;28;20452;-72
2023/05/11 15:27:54;;;;;;;20.40;15.50;;;;;;;;;;5095158;28;20563;-72
2023/05/11 15:30:24;;;;;;;18.30;16.43;;;;;;;;;;5101228;28;20475;-71
2023/05/11 15:33:10;;;;;;;18.87;14.87;;;;;;;;;;5112595;28;20848;-70